sensor_id;sensor_type;location;lat;lon;timestamp;P1;durP1;ratioP1;P2;durP2;ratioP2
823;SDS011;373;49.342;8.146;2022-07-23T00:00:15;9.10;;;8.40;;
823;SDS011;373;49.342;8.146;2022-07-23T00:02:43;8.68;;;7.82;;
823;SDS011;373;49.342;8.146;2022-07-23T00:05:10;8.32;;;7.72;;
823;SDS011;373;49.342;8.146;2022-07-23T00:07:39;8.23;;;7.63;;
823;SDS011;373;49.342;8.146;2022-07-23T00:10:07;8.52;;;7.82;;
823;SDS011;373;49.342;8.146;2022-07-23T00:12:35;9.52;;;8.65;;
823;SDS011;373;49.342;8.146;2022-07-23T00:15:02;8.90;;;8.18;;
823;SDS011;373;49.342;8.146;2022-07-23T00:17:30;8.95;;;8.25;;
823;SDS011;373;49.342;8.146;2022-07-23T00:19:57;9.40;;;8.60;;
823;SDS011;373;49.342;8.146;2022-07-23T00:22:24;8.93;;;8.23;;
823;SDS011;373;49.342;8.146;2022-07-23T00:24:54;9.40;;;8.60;;
823;SDS011;373;49.342;8.146;2022-07-23T00:27:21;8.60;;;7.90;;
823;SDS011;373;49.342;8.146;2022-07-23T00:29:49;8.68;;;7.97;;
823;SDS011;373;49.342;8.146;2022-07-23T00:32:16;9.15;;;8.45;;
823;SDS011;373;49.342;8.146;2022-07-23T00:34:43;9.15;;;8.40;;
823;SDS011;373;49.342;8.146;2022-07-23T00:37:10;9.35;;;8.65;;
823;SDS011;373;49.342;8.146;2022-07-23T00:39:37;9.15;;;8.45;;
823;SDS011;373;49.342;8.146;2022-07-23T00:42:06;8.38;;;7.68;;
823;SDS011;373;49.342;8.146;2022-07-23T00:44:33;8.75;;;8.10;;
823;SDS011;373;49.342;8.146;2022-07-23T00:47:00;8.20;;;7.60;;
823;SDS011;373;49.342;8.146;2022-07-23T00:49:28;8.85;;;8.07;;
823;SDS011;373;49.342;8.146;2022-07-23T00:51:56;8.88;;;8.18;;
823;SDS011;373;49.342;8.146;2022-07-23T00:54:24;9.43;;;8.70;;
823;SDS011;373;49.342;8.146;2022-07-23T00:56:53;8.32;;;7.72;;
823;SDS011;373;49.342;8.146;2022-07-23T00:59:22;8.80;;;8.20;;
823;SDS011;373;49.342;8.146;2022-07-23T01:01:49;9.00;;;8.30;;
823;SDS011;373;49.342;8.146;2022-07-23T01:04:16;8.68;;;7.93;;
823;SDS011;373;49.342;8.146;2022-07-23T01:06:44;9.30;;;8.50;;
823;SDS011;373;49.342;8.146;2022-07-23T01:09:11;8.15;;;7.47;;
823;SDS011;373;49.342;8.146;2022-07-23T01:11:39;8.68;;;7.97;;
823;SDS011;373;49.342;8.146;2022-07-23T01:14:10;8.25;;;7.65;;
823;SDS011;373;49.342;8.146;2022-07-23T01:16:40;8.77;;;8.05;;
823;SDS011;373;49.342;8.146;2022-07-23T01:19:08;8.13;;;7.43;;
823;SDS011;373;49.342;8.146;2022-07-23T01:21:37;8.52;;;7.93;;
823;SDS011;373;49.342;8.146;2022-07-23T01:24:07;8.65;;;7.95;;
823;SDS011;373;49.342;8.146;2022-07-23T01:26:37;8.40;;;7.80;;
823;SDS011;373;49.342;8.146;2022-07-23T01:29:06;7.75;;;7.15;;
823;SDS011;373;49.342;8.146;2022-07-23T01:31:34;8.15;;;7.47;;
823;SDS011;373;49.342;8.146;2022-07-23T01:34:01;8.55;;;7.85;;
823;SDS011;373;49.342;8.146;2022-07-23T01:36:29;8.40;;;7.75;;
823;SDS011;373;49.342;8.146;2022-07-23T01:38:57;8.35;;;7.65;;
823;SDS011;373;49.342;8.146;2022-07-23T01:41:27;8.48;;;7.53;;
823;SDS011;373;49.342;8.146;2022-07-23T01:43:54;8.98;;;8.13;;
823;SDS011;373;49.342;8.146;2022-07-23T01:46:22;9.07;;;8.30;;
823;SDS011;373;49.342;8.146;2022-07-23T01:48:50;8.77;;;8.07;;
823;SDS011;373;49.342;8.146;2022-07-23T01:51:43;9.27;;;8.48;;
823;SDS011;373;49.342;8.146;2022-07-23T01:54:25;9.05;;;8.35;;
823;SDS011;373;49.342;8.146;2022-07-23T01:56:53;9.25;;;8.55;;
823;SDS011;373;49.342;8.146;2022-07-23T01:59:21;8.65;;;7.97;;
823;SDS011;373;49.342;8.146;2022-07-23T02:01:48;8.48;;;7.88;;
823;SDS011;373;49.342;8.146;2022-07-23T02:04:17;9.00;;;8.15;;
823;SDS011;373;49.342;8.146;2022-07-23T02:06:46;8.85;;;8.15;;
823;SDS011;373;49.342;8.146;2022-07-23T02:09:13;9.07;;;8.38;;
823;SDS011;373;49.342;8.146;2022-07-23T02:11:41;8.88;;;8.10;;
823;SDS011;373;49.342;8.146;2022-07-23T02:14:10;8.45;;;7.85;;
823;SDS011;373;49.342;8.146;2022-07-23T02:16:37;7.95;;;7.25;;
823;SDS011;373;49.342;8.146;2022-07-23T02:19:04;8.07;;;7.45;;
823;SDS011;373;49.342;8.146;2022-07-23T02:21:32;7.15;;;6.45;;
823;SDS011;373;49.342;8.146;2022-07-23T02:23:59;8.00;;;7.25;;
823;SDS011;373;49.342;8.146;2022-07-23T02:26:27;8.38;;;7.68;;
823;SDS011;373;49.342;8.146;2022-07-23T02:28:55;8.88;;;7.07;;
823;SDS011;373;49.342;8.146;2022-07-23T02:31:24;7.55;;;6.95;;
823;SDS011;373;49.342;8.146;2022-07-23T02:54:21;7.70;;;7.10;;
823;SDS011;373;49.342;8.146;2022-07-23T02:56:51;7.32;;;6.82;;
823;SDS011;373;49.342;8.146;2022-07-23T02:59:18;7.78;;;7.10;;
823;SDS011;373;49.342;8.146;2022-07-23T03:01:46;7.68;;;7.07;;
823;SDS011;373;49.342;8.146;2022-07-23T03:04:13;7.35;;;6.75;;
823;SDS011;373;49.342;8.146;2022-07-23T03:06:42;7.57;;;7.00;;
823;SDS011;373;49.342;8.146;2022-07-23T03:09:09;7.93;;;7.32;;
823;SDS011;373;49.342;8.146;2022-07-23T03:11:39;7.68;;;7.07;;
823;SDS011;373;49.342;8.146;2022-07-23T03:14:07;7.93;;;7.20;;
823;SDS011;373;49.342;8.146;2022-07-23T03:16:37;7.35;;;6.65;;
823;SDS011;373;49.342;8.146;2022-07-23T03:19:04;7.82;;;7.25;;
823;SDS011;373;49.342;8.146;2022-07-23T03:21:31;8.25;;;7.53;;
823;SDS011;373;49.342;8.146;2022-07-23T03:23:59;8.50;;;7.80;;
823;SDS011;373;49.342;8.146;2022-07-23T03:26:26;7.78;;;7.15;;
823;SDS011;373;49.342;8.146;2022-07-23T03:28:55;7.20;;;6.60;;
823;SDS011;373;49.342;8.146;2022-07-23T03:31:22;7.13;;;6.43;;
823;SDS011;373;49.342;8.146;2022-07-23T03:33:49;7.43;;;6.72;;
823;SDS011;373;49.342;8.146;2022-07-23T03:36:16;7.82;;;7.13;;
823;SDS011;373;49.342;8.146;2022-07-23T03:38:45;8.18;;;7.18;;
823;SDS011;373;49.342;8.146;2022-07-23T03:41:12;8.43;;;7.72;;
823;SDS011;373;49.342;8.146;2022-07-23T03:43:40;8.73;;;7.80;;
823;SDS011;373;49.342;8.146;2022-07-23T03:48:53;7.47;;;6.88;;
823;SDS011;373;49.342;8.146;2022-07-23T03:51:20;8.07;;;7.38;;
823;SDS011;373;49.342;8.146;2022-07-23T03:53:47;8.27;;;7.63;;
823;SDS011;373;49.342;8.146;2022-07-23T03:56:15;8.27;;;7.57;;
823;SDS011;373;49.342;8.146;2022-07-23T03:58:43;8.77;;;8.05;;
823;SDS011;373;49.342;8.146;2022-07-23T04:23:47;8.20;;;7.50;;
823;SDS011;373;49.342;8.146;2022-07-23T04:26:24;8.38;;;7.57;;
823;SDS011;373;49.342;8.146;2022-07-23T04:29:02;7.80;;;7.20;;
823;SDS011;373;49.342;8.146;2022-07-23T04:31:36;8.20;;;7.50;;
823;SDS011;373;49.342;8.146;2022-07-23T04:43:08;9.80;;;8.90;;
823;SDS011;373;49.342;8.146;2022-07-23T04:45:42;10.05;;;9.23;;
823;SDS011;373;49.342;8.146;2022-07-23T04:48:10;9.70;;;8.88;;
823;SDS011;373;49.342;8.146;2022-07-23T04:50:37;10.32;;;9.52;;
823;SDS011;373;49.342;8.146;2022-07-23T04:53:14;10.95;;;10.07;;
823;SDS011;373;49.342;8.146;2022-07-23T04:55:42;11.88;;;10.88;;
823;SDS011;373;49.342;8.146;2022-07-23T04:58:10;11.80;;;10.77;;
823;SDS011;373;49.342;8.146;2022-07-23T05:00:38;10.50;;;9.70;;
823;SDS011;373;49.342;8.146;2022-07-23T05:03:05;13.82;;;10.48;;
823;SDS011;373;49.342;8.146;2022-07-23T05:05:32;10.40;;;9.43;;
823;SDS011;373;49.342;8.146;2022-07-23T05:08:07;11.43;;;10.35;;
823;SDS011;373;49.342;8.146;2022-07-23T05:10:37;10.38;;;9.48;;
823;SDS011;373;49.342;8.146;2022-07-23T05:13:04;10.18;;;9.23;;
823;SDS011;373;49.342;8.146;2022-07-23T05:15:33;9.10;;;8.32;;
823;SDS011;373;49.342;8.146;2022-07-23T05:18:01;12.88;;;9.93;;
823;SDS011;373;49.342;8.146;2022-07-23T05:20:28;10.63;;;9.63;;
823;SDS011;373;49.342;8.146;2022-07-23T05:22:55;10.65;;;9.75;;
823;SDS011;373;49.342;8.146;2022-07-23T05:25:22;10.65;;;9.68;;
823;SDS011;373;49.342;8.146;2022-07-23T05:27:50;9.48;;;8.77;;
823;SDS011;373;49.342;8.146;2022-07-23T05:30:17;10.15;;;9.15;;
823;SDS011;373;49.342;8.146;2022-07-23T05:32:48;9.63;;;8.85;;
823;SDS011;373;49.342;8.146;2022-07-23T05:35:17;9.85;;;9.02;;
823;SDS011;373;49.342;8.146;2022-07-23T05:37:55;10.75;;;9.88;;
823;SDS011;373;49.342;8.146;2022-07-23T05:40:22;10.63;;;9.65;;
823;SDS011;373;49.342;8.146;2022-07-23T05:42:49;10.43;;;9.52;;
823;SDS011;373;49.342;8.146;2022-07-23T05:45:17;11.55;;;10.30;;
823;SDS011;373;49.342;8.146;2022-07-23T05:47:46;10.70;;;9.80;;
823;SDS011;373;49.342;8.146;2022-07-23T05:50:24;10.65;;;9.75;;
823;SDS011;373;49.342;8.146;2022-07-23T05:52:59;9.90;;;9.05;;
823;SDS011;373;49.342;8.146;2022-07-23T05:55:47;8.75;;;8.05;;
823;SDS011;373;49.342;8.146;2022-07-23T05:58:14;9.65;;;8.93;;
823;SDS011;373;49.342;8.146;2022-07-23T06:00:41;9.50;;;8.70;;
823;SDS011;373;49.342;8.146;2022-07-23T06:03:10;10.18;;;9.38;;
823;SDS011;373;49.342;8.146;2022-07-23T06:05:38;11.05;;;10.15;;
823;SDS011;373;49.342;8.146;2022-07-23T06:08:05;9.25;;;8.45;;
823;SDS011;373;49.342;8.146;2022-07-23T06:10:32;10.32;;;9.50;;
823;SDS011;373;49.342;8.146;2022-07-23T06:13:00;10.60;;;9.70;;
823;SDS011;373;49.342;8.146;2022-07-23T06:15:27;9.18;;;8.38;;
823;SDS011;373;49.342;8.146;2022-07-23T06:17:55;9.30;;;8.52;;
823;SDS011;373;49.342;8.146;2022-07-23T06:20:24;10.38;;;9.48;;
823;SDS011;373;49.342;8.146;2022-07-23T06:22:51;10.32;;;9.38;;
823;SDS011;373;49.342;8.146;2022-07-23T06:25:18;10.18;;;9.38;;
823;SDS011;373;49.342;8.146;2022-07-23T06:27:46;10.65;;;9.75;;
823;SDS011;373;49.342;8.146;2022-07-23T06:30:13;11.27;;;10.35;;
823;SDS011;373;49.342;8.146;2022-07-23T06:32:42;12.48;;;11.23;;
823;SDS011;373;49.342;8.146;2022-07-23T06:35:09;11.40;;;10.40;;
823;SDS011;373;49.342;8.146;2022-07-23T06:37:38;10.05;;;9.20;;
823;SDS011;373;49.342;8.146;2022-07-23T06:40:05;11.82;;;10.77;;
823;SDS011;373;49.342;8.146;2022-07-23T06:42:36;11.93;;;10.77;;
823;SDS011;373;49.342;8.146;2022-07-23T06:45:05;11.40;;;10.40;;
823;SDS011;373;49.342;8.146;2022-07-23T06:47:35;11.77;;;10.75;;
823;SDS011;373;49.342;8.146;2022-07-23T06:50:02;10.93;;;10.02;;
823;SDS011;373;49.342;8.146;2022-07-23T06:52:29;11.05;;;10.15;;
823;SDS011;373;49.342;8.146;2022-07-23T06:55:01;11.45;;;10.52;;
823;SDS011;373;49.342;8.146;2022-07-23T06:57:28;10.82;;;9.60;;
823;SDS011;373;49.342;8.146;2022-07-23T06:59:55;11.40;;;10.50;;
823;SDS011;373;49.342;8.146;2022-07-23T07:02:22;11.07;;;10.13;;
823;SDS011;373;49.342;8.146;2022-07-23T07:04:49;10.75;;;9.85;;
823;SDS011;373;49.342;8.146;2022-07-23T07:07:17;11.13;;;10.23;;
823;SDS011;373;49.342;8.146;2022-07-23T07:09:44;10.77;;;9.85;;
823;SDS011;373;49.342;8.146;2022-07-23T07:12:13;10.13;;;9.13;;
823;SDS011;373;49.342;8.146;2022-07-23T07:14:40;10.73;;;9.93;;
823;SDS011;373;49.342;8.146;2022-07-23T07:17:07;9.60;;;8.80;;
823;SDS011;373;49.342;8.146;2022-07-23T07:19:35;9.43;;;8.60;;
823;SDS011;373;49.342;8.146;2022-07-23T07:22:03;10.23;;;9.32;;
823;SDS011;373;49.342;8.146;2022-07-23T07:24:30;10.65;;;9.82;;
823;SDS011;373;49.342;8.146;2022-07-23T07:26:57;11.07;;;10.23;;
823;SDS011;373;49.342;8.146;2022-07-23T07:29:25;11.43;;;10.52;;
823;SDS011;373;49.342;8.146;2022-07-23T07:31:53;10.43;;;9.48;;
823;SDS011;373;49.342;8.146;2022-07-23T07:34:20;11.55;;;10.45;;
823;SDS011;373;49.342;8.146;2022-07-23T07:36:47;11.07;;;10.07;;
823;SDS011;373;49.342;8.146;2022-07-23T07:39:15;10.77;;;9.77;;
823;SDS011;373;49.342;8.146;2022-07-23T07:41:42;11.15;;;10.25;;
823;SDS011;373;49.342;8.146;2022-07-23T07:44:09;11.68;;;10.70;;
823;SDS011;373;49.342;8.146;2022-07-23T07:46:37;11.60;;;10.52;;
823;SDS011;373;49.342;8.146;2022-07-23T07:49:04;12.07;;;11.10;;
823;SDS011;373;49.342;8.146;2022-07-23T07:51:32;11.70;;;10.80;;
823;SDS011;373;49.342;8.146;2022-07-23T07:53:59;12.07;;;10.95;;
823;SDS011;373;49.342;8.146;2022-07-23T07:56:26;11.65;;;10.75;;
823;SDS011;373;49.342;8.146;2022-07-23T07:58:53;11.85;;;10.85;;
823;SDS011;373;49.342;8.146;2022-07-23T08:01:20;11.15;;;10.15;;
823;SDS011;373;49.342;8.146;2022-07-23T08:03:49;11.90;;;10.85;;
823;SDS011;373;49.342;8.146;2022-07-23T08:06:16;10.88;;;9.95;;
823;SDS011;373;49.342;8.146;2022-07-23T08:08:43;12.38;;;11.27;;
823;SDS011;373;49.342;8.146;2022-07-23T08:11:10;13.18;;;11.98;;
823;SDS011;373;49.342;8.146;2022-07-23T08:13:37;12.13;;;11.07;;
823;SDS011;373;49.342;8.146;2022-07-23T08:16:04;11.27;;;10.38;;
823;SDS011;373;49.342;8.146;2022-07-23T08:18:31;12.23;;;11.20;;
823;SDS011;373;49.342;8.146;2022-07-23T08:21:00;12.07;;;10.98;;
823;SDS011;373;49.342;8.146;2022-07-23T08:23:27;11.32;;;10.32;;
823;SDS011;373;49.342;8.146;2022-07-23T08:25:54;10.75;;;9.93;;
823;SDS011;373;49.342;8.146;2022-07-23T08:28:22;10.27;;;9.45;;
823;SDS011;373;49.342;8.146;2022-07-23T08:30:50;10.50;;;9.63;;
823;SDS011;373;49.342;8.146;2022-07-23T08:33:17;12.82;;;11.68;;
823;SDS011;373;49.342;8.146;2022-07-23T08:35:46;11.60;;;10.63;;
823;SDS011;373;49.342;8.146;2022-07-23T08:38:17;11.02;;;10.15;;
823;SDS011;373;49.342;8.146;2022-07-23T08:40:46;11.95;;;11.05;;
823;SDS011;373;49.342;8.146;2022-07-23T08:43:15;12.10;;;11.10;;
823;SDS011;373;49.342;8.146;2022-07-23T08:45:44;12.35;;;11.30;;
823;SDS011;373;49.342;8.146;2022-07-23T08:48:15;12.35;;;11.35;;
823;SDS011;373;49.342;8.146;2022-07-23T08:50:43;12.50;;;11.40;;
823;SDS011;373;49.342;8.146;2022-07-23T08:53:12;11.25;;;10.35;;
823;SDS011;373;49.342;8.146;2022-07-23T08:55:41;12.13;;;11.13;;
823;SDS011;373;49.342;8.146;2022-07-23T08:58:10;13.10;;;11.90;;
823;SDS011;373;49.342;8.146;2022-07-23T09:00:37;11.02;;;10.13;;
823;SDS011;373;49.342;8.146;2022-07-23T09:03:04;13.23;;;12.10;;
823;SDS011;373;49.342;8.146;2022-07-23T09:05:31;12.35;;;11.27;;
823;SDS011;373;49.342;8.146;2022-07-23T09:08:11;11.63;;;10.65;;
823;SDS011;373;49.342;8.146;2022-07-23T09:10:49;11.88;;;10.98;;
823;SDS011;373;49.342;8.146;2022-07-23T09:13:26;12.65;;;11.65;;
823;SDS011;373;49.342;8.146;2022-07-23T09:15:56;13.60;;;12.30;;
823;SDS011;373;49.342;8.146;2022-07-23T09:18:32;12.63;;;11.63;;
823;SDS011;373;49.342;8.146;2022-07-23T09:21:11;12.40;;;11.43;;
823;SDS011;373;49.342;8.146;2022-07-23T09:23:44;11.23;;;10.32;;
823;SDS011;373;49.342;8.146;2022-07-23T09:26:20;14.15;;;12.90;;
823;SDS011;373;49.342;8.146;2022-07-23T09:28:51;13.00;;;11.80;;
823;SDS011;373;49.342;8.146;2022-07-23T09:31:20;13.23;;;12.15;;
823;SDS011;373;49.342;8.146;2022-07-23T09:33:47;13.70;;;12.55;;
823;SDS011;373;49.342;8.146;2022-07-23T09:36:15;13.68;;;12.60;;
823;SDS011;373;49.342;8.146;2022-07-23T09:38:48;12.55;;;11.45;;
823;SDS011;373;49.342;8.146;2022-07-23T09:41:16;11.32;;;10.32;;
823;SDS011;373;49.342;8.146;2022-07-23T09:43:45;14.50;;;13.30;;
823;SDS011;373;49.342;8.146;2022-07-23T09:46:19;12.60;;;11.70;;
823;SDS011;373;49.342;8.146;2022-07-23T09:48:48;13.20;;;12.05;;
823;SDS011;373;49.342;8.146;2022-07-23T09:51:16;11.45;;;10.63;;
823;SDS011;373;49.342;8.146;2022-07-23T09:53:47;12.40;;;11.32;;
823;SDS011;373;49.342;8.146;2022-07-23T09:56:14;12.05;;;11.05;;
823;SDS011;373;49.342;8.146;2022-07-23T09:58:42;13.68;;;12.50;;
823;SDS011;373;49.342;8.146;2022-07-23T10:01:14;12.43;;;11.52;;
823;SDS011;373;49.342;8.146;2022-07-23T10:03:42;12.02;;;11.13;;
823;SDS011;373;49.342;8.146;2022-07-23T10:06:30;12.05;;;10.95;;
823;SDS011;373;49.342;8.146;2022-07-23T10:09:16;11.23;;;10.32;;
823;SDS011;373;49.342;8.146;2022-07-23T10:12:12;10.07;;;9.27;;
823;SDS011;373;49.342;8.146;2022-07-23T10:15:02;9.07;;;8.38;;
823;SDS011;373;49.342;8.146;2022-07-23T10:17:30;10.45;;;9.65;;
823;SDS011;373;49.342;8.146;2022-07-23T10:19:57;8.45;;;7.85;;
823;SDS011;373;49.342;8.146;2022-07-23T10:22:25;10.27;;;9.40;;
823;SDS011;373;49.342;8.146;2022-07-23T10:24:58;9.93;;;9.20;;
823;SDS011;373;49.342;8.146;2022-07-23T10:27:42;8.18;;;7.22;;
823;SDS011;373;49.342;8.146;2022-07-23T10:30:20;8.55;;;7.85;;
823;SDS011;373;49.342;8.146;2022-07-23T10:32:59;9.10;;;8.30;;
823;SDS011;373;49.342;8.146;2022-07-23T10:35:39;8.40;;;7.68;;
823;SDS011;373;49.342;8.146;2022-07-23T10:38:15;9.55;;;8.85;;
823;SDS011;373;49.342;8.146;2022-07-23T10:40:53;10.82;;;9.77;;
823;SDS011;373;49.342;8.146;2022-07-23T10:43:22;9.75;;;8.95;;
823;SDS011;373;49.342;8.146;2022-07-23T10:45:50;9.80;;;9.10;;
823;SDS011;373;49.342;8.146;2022-07-23T10:48:19;10.05;;;9.25;;
823;SDS011;373;49.342;8.146;2022-07-23T10:51:06;10.15;;;9.35;;
823;SDS011;373;49.342;8.146;2022-07-23T10:53:55;8.80;;;8.10;;
823;SDS011;373;49.342;8.146;2022-07-23T10:59:32;10.13;;;9.23;;
823;SDS011;373;49.342;8.146;2022-07-23T11:02:39;9.38;;;8.68;;
823;SDS011;373;49.342;8.146;2022-07-23T11:05:08;10.38;;;9.50;;
823;SDS011;373;49.342;8.146;2022-07-23T11:07:36;9.93;;;9.13;;
823;SDS011;373;49.342;8.146;2022-07-23T11:10:33;9.55;;;8.75;;
823;SDS011;373;49.342;8.146;2022-07-23T11:16:04;10.32;;;9.52;;
823;SDS011;373;49.342;8.146;2022-07-23T11:24:23;9.10;;;8.40;;
823;SDS011;373;49.342;8.146;2022-07-23T11:29:39;8.45;;;7.75;;
823;SDS011;373;49.342;8.146;2022-07-23T11:32:24;9.27;;;8.65;;
823;SDS011;373;49.342;8.146;2022-07-23T11:34:57;8.77;;;8.18;;
823;SDS011;373;49.342;8.146;2022-07-23T11:37:35;9.15;;;8.45;;
823;SDS011;373;49.342;8.146;2022-07-23T11:40:05;8.35;;;7.38;;
823;SDS011;373;49.342;8.146;2022-07-23T11:42:35;9.35;;;8.65;;
823;SDS011;373;49.342;8.146;2022-07-23T11:45:04;8.60;;;8.00;;
823;SDS011;373;49.342;8.146;2022-07-23T11:47:33;8.45;;;7.78;;
823;SDS011;373;49.342;8.146;2022-07-23T11:50:03;7.90;;;7.28;;
823;SDS011;373;49.342;8.146;2022-07-23T11:52:33;8.20;;;7.60;;
823;SDS011;373;49.342;8.146;2022-07-23T11:55:01;9.35;;;8.68;;
823;SDS011;373;49.342;8.146;2022-07-23T11:57:31;9.20;;;8.50;;
823;SDS011;373;49.342;8.146;2022-07-23T12:00:00;9.40;;;8.70;;
823;SDS011;373;49.342;8.146;2022-07-23T12:02:37;9.10;;;8.40;;
823;SDS011;373;49.342;8.146;2022-07-23T12:05:06;8.27;;;7.68;;
823;SDS011;373;49.342;8.146;2022-07-23T12:07:38;9.18;;;8.40;;
823;SDS011;373;49.342;8.146;2022-07-23T12:10:10;8.95;;;8.25;;
823;SDS011;373;49.342;8.146;2022-07-23T12:12:39;8.63;;;7.95;;
823;SDS011;373;49.342;8.146;2022-07-23T12:15:07;8.95;;;8.25;;
823;SDS011;373;49.342;8.146;2022-07-23T12:17:36;8.85;;;8.15;;
823;SDS011;373;49.342;8.146;2022-07-23T12:20:07;8.38;;;7.68;;
823;SDS011;373;49.342;8.146;2022-07-23T12:22:36;8.63;;;7.93;;
823;SDS011;373;49.342;8.146;2022-07-23T12:25:06;8.63;;;7.93;;
823;SDS011;373;49.342;8.146;2022-07-23T12:27:34;9.70;;;9.00;;
823;SDS011;373;49.342;8.146;2022-07-23T12:30:18;9.82;;;8.85;;
823;SDS011;373;49.342;8.146;2022-07-23T12:32:50;8.30;;;7.70;;
823;SDS011;373;49.342;8.146;2022-07-23T12:35:20;9.27;;;8.60;;
823;SDS011;373;49.342;8.146;2022-07-23T12:37:49;8.43;;;7.72;;
823;SDS011;373;49.342;8.146;2022-07-23T12:40:25;8.63;;;7.43;;
823;SDS011;373;49.342;8.146;2022-07-23T12:42:54;9.25;;;8.55;;
823;SDS011;373;49.342;8.146;2022-07-23T12:45:22;8.65;;;7.97;;
823;SDS011;373;49.342;8.146;2022-07-23T12:47:50;9.63;;;8.70;;
823;SDS011;373;49.342;8.146;2022-07-23T12:50:38;7.75;;;7.15;;
823;SDS011;373;49.342;8.146;2022-07-23T12:53:09;8.15;;;7.47;;
823;SDS011;373;49.342;8.146;2022-07-23T12:55:39;8.77;;;8.02;;
823;SDS011;373;49.342;8.146;2022-07-23T12:58:08;9.43;;;8.65;;
823;SDS011;373;49.342;8.146;2022-07-23T13:00:56;8.88;;;8.07;;
823;SDS011;373;49.342;8.146;2022-07-23T13:03:29;8.43;;;7.53;;
823;SDS011;373;49.342;8.146;2022-07-23T13:06:03;8.50;;;7.90;;
823;SDS011;373;49.342;8.146;2022-07-23T13:08:33;8.02;;;7.43;;
823;SDS011;373;49.342;8.146;2022-07-23T13:11:02;8.85;;;8.05;;
823;SDS011;373;49.342;8.146;2022-07-23T13:13:31;8.52;;;7.90;;
823;SDS011;373;49.342;8.146;2022-07-23T13:16:01;8.35;;;7.75;;
823;SDS011;373;49.342;8.146;2022-07-23T13:18:29;8.88;;;8.00;;
823;SDS011;373;49.342;8.146;2022-07-23T13:20:57;8.98;;;8.38;;
823;SDS011;373;49.342;8.146;2022-07-23T13:23:26;8.40;;;7.75;;
823;SDS011;373;49.342;8.146;2022-07-23T13:25:53;8.07;;;7.43;;
823;SDS011;373;49.342;8.146;2022-07-23T13:28:21;7.80;;;7.10;;
823;SDS011;373;49.342;8.146;2022-07-23T13:30:50;8.35;;;7.75;;
823;SDS011;373;49.342;8.146;2022-07-23T13:33:18;8.32;;;7.70;;
823;SDS011;373;49.342;8.146;2022-07-23T13:35:46;9.25;;;8.52;;
823;SDS011;373;49.342;8.146;2022-07-23T13:38:14;8.48;;;7.88;;
823;SDS011;373;49.342;8.146;2022-07-23T13:40:44;8.43;;;7.82;;
823;SDS011;373;49.342;8.146;2022-07-23T13:43:14;9.25;;;8.27;;
823;SDS011;373;49.342;8.146;2022-07-23T13:45:43;6.93;;;6.32;;
823;SDS011;373;49.342;8.146;2022-07-23T13:48:11;8.13;;;7.53;;
823;SDS011;373;49.342;8.146;2022-07-23T13:50:39;8.32;;;7.70;;
823;SDS011;373;49.342;8.146;2022-07-23T13:53:07;8.48;;;7.68;;
823;SDS011;373;49.342;8.146;2022-07-23T13:55:36;8.40;;;7.70;;
823;SDS011;373;49.342;8.146;2022-07-23T13:58:06;7.97;;;7.30;;
823;SDS011;373;49.342;8.146;2022-07-23T14:00:35;12.05;;;8.05;;
823;SDS011;373;49.342;8.146;2022-07-23T14:03:04;8.95;;;7.25;;
823;SDS011;373;49.342;8.146;2022-07-23T14:05:32;9.32;;;7.55;;
823;SDS011;373;49.342;8.146;2022-07-23T14:07:59;8.57;;;7.55;;
823;SDS011;373;49.342;8.146;2022-07-23T14:10:26;8.15;;;7.55;;
823;SDS011;373;49.342;8.146;2022-07-23T14:12:54;11.20;;;8.13;;
823;SDS011;373;49.342;8.146;2022-07-23T14:15:24;8.00;;;7.22;;
823;SDS011;373;49.342;8.146;2022-07-23T14:17:52;9.23;;;8.30;;
823;SDS011;373;49.342;8.146;2022-07-23T14:20:20;8.07;;;7.38;;
823;SDS011;373;49.342;8.146;2022-07-23T14:22:48;8.55;;;7.00;;
823;SDS011;373;49.342;8.146;2022-07-23T14:25:16;8.18;;;7.57;;
823;SDS011;373;49.342;8.146;2022-07-23T14:27:43;11.68;;;7.15;;
823;SDS011;373;49.342;8.146;2022-07-23T14:30:12;8.38;;;7.78;;
823;SDS011;373;49.342;8.146;2022-07-23T14:32:41;7.82;;;7.22;;
823;SDS011;373;49.342;8.146;2022-07-23T14:35:10;6.82;;;6.30;;
823;SDS011;373;49.342;8.146;2022-07-23T14:37:38;7.38;;;6.82;;
823;SDS011;373;49.342;8.146;2022-07-23T14:40:06;7.70;;;7.07;;
823;SDS011;373;49.342;8.146;2022-07-23T14:42:34;7.55;;;6.82;;
823;SDS011;373;49.342;8.146;2022-07-23T14:45:01;9.55;;;7.50;;
823;SDS011;373;49.342;8.146;2022-07-23T14:47:30;7.38;;;6.72;;
823;SDS011;373;49.342;8.146;2022-07-23T14:49:59;7.25;;;6.68;;
823;SDS011;373;49.342;8.146;2022-07-23T14:52:26;7.35;;;6.75;;
823;SDS011;373;49.342;8.146;2022-07-23T14:54:53;6.93;;;6.40;;
823;SDS011;373;49.342;8.146;2022-07-23T14:57:22;7.45;;;6.95;;
823;SDS011;373;49.342;8.146;2022-07-23T14:59:49;8.05;;;7.40;;
823;SDS011;373;49.342;8.146;2022-07-23T15:02:17;7.35;;;6.72;;
823;SDS011;373;49.342;8.146;2022-07-23T15:04:46;7.03;;;6.47;;
823;SDS011;373;49.342;8.146;2022-07-23T15:07:15;6.90;;;6.40;;
823;SDS011;373;49.342;8.146;2022-07-23T15:10:22;7.10;;;6.50;;
823;SDS011;373;49.342;8.146;2022-07-23T15:12:50;7.13;;;6.60;;
823;SDS011;373;49.342;8.146;2022-07-23T15:15:17;7.38;;;6.88;;
823;SDS011;373;49.342;8.146;2022-07-23T15:17:44;7.30;;;6.70;;
823;SDS011;373;49.342;8.146;2022-07-23T15:20:12;7.15;;;6.65;;
823;SDS011;373;49.342;8.146;2022-07-23T15:22:40;7.55;;;6.90;;
823;SDS011;373;49.342;8.146;2022-07-23T15:25:08;7.00;;;6.50;;
823;SDS011;373;49.342;8.146;2022-07-23T15:27:35;7.25;;;6.65;;
823;SDS011;373;49.342;8.146;2022-07-23T15:30:03;7.10;;;6.60;;
823;SDS011;373;49.342;8.146;2022-07-23T15:32:31;6.70;;;6.20;;
823;SDS011;373;49.342;8.146;2022-07-23T15:34:58;7.55;;;6.80;;
823;SDS011;373;49.342;8.146;2022-07-23T15:37:26;7.38;;;6.88;;
823;SDS011;373;49.342;8.146;2022-07-23T15:39:54;7.30;;;6.70;;
823;SDS011;373;49.342;8.146;2022-07-23T15:42:21;6.40;;;5.90;;
823;SDS011;373;49.342;8.146;2022-07-23T15:44:48;6.28;;;5.78;;
823;SDS011;373;49.342;8.146;2022-07-23T15:47:16;6.72;;;6.22;;
823;SDS011;373;49.342;8.146;2022-07-23T15:49:45;6.40;;;5.90;;
823;SDS011;373;49.342;8.146;2022-07-23T15:52:13;7.00;;;6.38;;
823;SDS011;373;49.342;8.146;2022-07-23T15:54:40;6.72;;;6.20;;
823;SDS011;373;49.342;8.146;2022-07-23T15:57:09;7.20;;;6.55;;
823;SDS011;373;49.342;8.146;2022-07-23T15:59:36;6.85;;;6.35;;
823;SDS011;373;49.342;8.146;2022-07-23T16:02:05;7.25;;;6.65;;
823;SDS011;373;49.342;8.146;2022-07-23T16:04:32;6.82;;;6.13;;
823;SDS011;373;49.342;8.146;2022-07-23T16:07:00;6.95;;;6.32;;
823;SDS011;373;49.342;8.146;2022-07-23T16:09:27;6.65;;;6.18;;
823;SDS011;373;49.342;8.146;2022-07-23T16:11:54;6.88;;;6.38;;
823;SDS011;373;49.342;8.146;2022-07-23T16:14:23;6.47;;;5.97;;
823;SDS011;373;49.342;8.146;2022-07-23T16:16:50;6.15;;;5.68;;
823;SDS011;373;49.342;8.146;2022-07-23T16:19:18;6.45;;;5.85;;
823;SDS011;373;49.342;8.146;2022-07-23T16:21:45;7.25;;;6.50;;
823;SDS011;373;49.342;8.146;2022-07-23T16:24:12;6.13;;;5.72;;
823;SDS011;373;49.342;8.146;2022-07-23T16:26:39;6.65;;;6.07;;
823;SDS011;373;49.342;8.146;2022-07-23T16:29:07;6.45;;;5.85;;
823;SDS011;373;49.342;8.146;2022-07-23T16:31:35;6.63;;;6.13;;
823;SDS011;373;49.342;8.146;2022-07-23T16:34:02;6.55;;;6.05;;
823;SDS011;373;49.342;8.146;2022-07-23T16:36:30;6.95;;;6.35;;
823;SDS011;373;49.342;8.146;2022-07-23T16:38:58;6.38;;;5.88;;
823;SDS011;373;49.342;8.146;2022-07-23T16:41:25;5.88;;;5.47;;
823;SDS011;373;49.342;8.146;2022-07-23T16:43:53;6.07;;;5.57;;
823;SDS011;373;49.342;8.146;2022-07-23T16:46:20;7.00;;;5.80;;
823;SDS011;373;49.342;8.146;2022-07-23T16:48:49;7.10;;;6.50;;
823;SDS011;373;49.342;8.146;2022-07-23T16:51:16;6.65;;;6.13;;
823;SDS011;373;49.342;8.146;2022-07-23T16:53:43;6.05;;;5.50;;
823;SDS011;373;49.342;8.146;2022-07-23T16:56:10;6.15;;;5.75;;
823;SDS011;373;49.342;8.146;2022-07-23T16:58:37;6.40;;;5.93;;
823;SDS011;373;49.342;8.146;2022-07-23T17:01:04;6.47;;;5.97;;